sensor_id;sensor_type;location;lat;lon;timestamp;pressure;altitude;pressure_sealevel;temperature;humidity
43420;BME280;29017;51.514;-0.178;2023-12-20T00:00:14;101725.41;;;8.56;90.03
43420;BME280;29017;51.514;-0.178;2023-12-20T00:02:47;101722.53;;;8.59;90.10
43420;BME280;29017;51.514;-0.178;2023-12-20T00:05:14;101721.69;;;8.58;90.63
43420;BME280;29017;51.514;-0.178;2023-12-20T00:07:42;101724.94;;;8.62;90.92
43420;BME280;29017;51.514;-0.178;2023-12-20T00:10:10;101725.63;;;8.64;91.01
43420;BME280;29017;51.514;-0.178;2023-12-20T00:12:39;101723.16;;;8.63;90.59
43420;BME280;29017;51.514;-0.178;2023-12-20T00:15:23;101722.44;;;8.61;90.64
43420;BME280;29017;51.514;-0.178;2023-12-20T00:17:50;101722.31;;;8.62;91.02
43420;BME280;29017;51.514;-0.178;2023-12-20T00:20:18;101719.69;;;8.62;91.10
43420;BME280;29017;51.514;-0.178;2023-12-20T00:22:45;101708.00;;;8.66;91.39
43420;BME280;29017;51.514;-0.178;2023-12-20T00:25:13;101704.66;;;8.64;90.49
43420;BME280;29017;51.514;-0.178;2023-12-20T00:27:41;101716.22;;;8.62;90.62
43420;BME280;29017;51.514;-0.178;2023-12-20T00:30:09;101708.38;;;8.62;90.56
43420;BME280;29017;51.514;-0.178;2023-12-20T00:32:37;101714.56;;;8.61;90.86
43420;BME280;29017;51.514;-0.178;2023-12-20T00:35:04;101714.06;;;8.55;90.56
43420;BME280;29017;51.514;-0.178;2023-12-20T00:37:31;101704.78;;;8.51;90.89
43420;BME280;29017;51.514;-0.178;2023-12-20T00:39:58;101705.84;;;8.49;91.24
43420;BME280;29017;51.514;-0.178;2023-12-20T00:42:25;101705.00;;;8.48;91.46
43420;BME280;29017;51.514;-0.178;2023-12-20T00:44:52;101696.19;;;8.49;91.42
43420;BME280;29017;51.514;-0.178;2023-12-20T00:47:20;101709.06;;;8.52;91.75
43420;BME280;29017;51.514;-0.178;2023-12-20T00:49:47;101714.91;;;8.56;91.63
43420;BME280;29017;51.514;-0.178;2023-12-20T00:52:14;101710.41;;;8.58;91.72
43420;BME280;29017;51.514;-0.178;2023-12-20T00:54:41;101700.13;;;8.55;90.85
43420;BME280;29017;51.514;-0.178;2023-12-20T00:57:08;101692.97;;;8.57;91.72
43420;BME280;29017;51.514;-0.178;2023-12-20T00:59:35;101695.81;;;8.54;91.45
43420;BME280;29017;51.514;-0.178;2023-12-20T01:02:02;101696.81;;;8.53;91.22
43420;BME280;29017;51.514;-0.178;2023-12-20T01:04:30;101705.63;;;8.52;91.18
43420;BME280;29017;51.514;-0.178;2023-12-20T01:06:57;101699.28;;;8.54;91.44
43420;BME280;29017;51.514;-0.178;2023-12-20T01:09:24;101702.03;;;8.53;91.28
43420;BME280;29017;51.514;-0.178;2023-12-20T01:11:53;101699.28;;;8.54;91.90
43420;BME280;29017;51.514;-0.178;2023-12-20T01:14:20;101694.03;;;8.54;91.41
43420;BME280;29017;51.514;-0.178;2023-12-20T01:16:47;101688.78;;;8.54;91.29
43420;BME280;29017;51.514;-0.178;2023-12-20T01:19:15;101684.38;;;8.55;90.98
43420;BME280;29017;51.514;-0.178;2023-12-20T01:21:43;101682.84;;;8.52;90.78
43420;BME280;29017;51.514;-0.178;2023-12-20T01:24:10;101676.03;;;8.50;90.75
43420;BME280;29017;51.514;-0.178;2023-12-20T01:26:37;101679.50;;;8.50;91.07
43420;BME280;29017;51.514;-0.178;2023-12-20T01:29:04;101680.34;;;8.51;91.01
43420;BME280;29017;51.514;-0.178;2023-12-20T01:31:31;101680.69;;;8.46;91.08
43420;BME280;29017;51.514;-0.178;2023-12-20T01:33:58;101685.09;;;8.46;91.66
43420;BME280;29017;51.514;-0.178;2023-12-20T01:36:26;101686.78;;;8.47;92.03
43420;BME280;29017;51.514;-0.178;2023-12-20T01:38:53;101687.63;;;8.47;91.44
43420;BME280;29017;51.514;-0.178;2023-12-20T01:41:20;101690.34;;;8.46;91.68
43420;BME280;29017;51.514;-0.178;2023-12-20T01:43:48;101698.22;;;8.46;92.07
43420;BME280;29017;51.514;-0.178;2023-12-20T01:46:17;101694.50;;;8.48;92.13
43420;BME280;29017;51.514;-0.178;2023-12-20T01:48:45;101687.63;;;8.47;91.48
43420;BME280;29017;51.514;-0.178;2023-12-20T01:51:12;101693.56;;;8.49;91.06
43420;BME280;29017;51.514;-0.178;2023-12-20T01:53:41;101700.47;;;8.50;91.57
43420;BME280;29017;51.514;-0.178;2023-12-20T01:56:09;101694.41;;;8.50;92.21
43420;BME280;29017;51.514;-0.178;2023-12-20T01:58:41;101689.16;;;8.50;92.12
43420;BME280;29017;51.514;-0.178;2023-12-20T02:01:10;101695.47;;;8.47;92.00
43420;BME280;29017;51.514;-0.178;2023-12-20T02:03:37;101688.56;;;8.46;92.19
43420;BME280;29017;51.514;-0.178;2023-12-20T02:06:05;101680.91;;;8.43;91.67
43420;BME280;29017;51.514;-0.178;2023-12-20T02:08:32;101677.34;;;8.44;91.57
43420;BME280;29017;51.514;-0.178;2023-12-20T02:10:59;101673.28;;;8.40;91.78
43420;BME280;29017;51.514;-0.178;2023-12-20T02:13:26;101672.56;;;8.38;92.07
43420;BME280;29017;51.514;-0.178;2023-12-20T02:15:54;101666.50;;;8.38;92.51
43420;BME280;29017;51.514;-0.178;2023-12-20T02:18:22;101651.72;;;8.37;92.54
43420;BME280;29017;51.514;-0.178;2023-12-20T02:20:49;101656.97;;;8.37;92.62
43420;BME280;29017;51.514;-0.178;2023-12-20T02:23:16;101656.25;;;8.35;92.66
43420;BME280;29017;51.514;-0.178;2023-12-20T02:25:44;101660.66;;;8.34;92.56
43420;BME280;29017;51.514;-0.178;2023-12-20T02:28:11;101658.88;;;8.35;93.17
43420;BME280;29017;51.514;-0.178;2023-12-20T02:30:39;101661.72;;;8.32;93.01
43420;BME280;29017;51.514;-0.178;2023-12-20T02:33:10;101667.16;;;8.29;92.94
43420;BME280;29017;51.514;-0.178;2023-12-20T02:35:41;101666.13;;;8.31;94.08
43420;BME280;29017;51.514;-0.178;2023-12-20T02:38:09;101664.47;;;8.30;94.07
43420;BME280;29017;51.514;-0.178;2023-12-20T02:40:36;101668.88;;;8.30;93.59
43420;BME280;29017;51.514;-0.178;2023-12-20T02:43:03;101667.16;;;8.29;93.22
43420;BME280;29017;51.514;-0.178;2023-12-20T02:45:30;101671.69;;;8.27;92.89
43420;BME280;29017;51.514;-0.178;2023-12-20T02:47:57;101678.13;;;8.23;92.94
43420;BME280;29017;51.514;-0.178;2023-12-20T02:50:25;101684.44;;;8.20;93.24
43420;BME280;29017;51.514;-0.178;2023-12-20T02:52:53;101674.78;;;8.21;93.71
43420;BME280;29017;51.514;-0.178;2023-12-20T02:55:24;101670.59;;;8.18;93.48
43420;BME280;29017;51.514;-0.178;2023-12-20T02:57:51;101672.63;;;8.14;93.53
43420;BME280;29017;51.514;-0.178;2023-12-20T03:00:21;101671.44;;;8.18;94.20
43420;BME280;29017;51.514;-0.178;2023-12-20T03:02:48;101671.31;;;8.20;94.60
43420;BME280;29017;51.514;-0.178;2023-12-20T03:05:17;101659.78;;;8.23;94.50
43420;BME280;29017;51.514;-0.178;2023-12-20T03:07:44;101664.06;;;8.24;94.16
43420;BME280;29017;51.514;-0.178;2023-12-20T03:10:12;101671.22;;;8.22;93.78
43420;BME280;29017;51.514;-0.178;2023-12-20T03:12:49;101656.44;;;8.21;93.88
43420;BME280;29017;51.514;-0.178;2023-12-20T03:15:16;101654.75;;;8.20;94.09
43420;BME280;29017;51.514;-0.178;2023-12-20T03:17:43;101663.81;;;8.15;94.19
43420;BME280;29017;51.514;-0.178;2023-12-20T03:20:11;101661.91;;;8.18;94.23
43420;BME280;29017;51.514;-0.178;2023-12-20T03:22:38;101659.16;;;8.19;94.27
43420;BME280;29017;51.514;-0.178;2023-12-20T03:25:05;101657.63;;;8.16;93.81
43420;BME280;29017;51.514;-0.178;2023-12-20T03:27:33;101665.25;;;8.20;94.50
43420;BME280;29017;51.514;-0.178;2023-12-20T03:30:00;101657.63;;;8.16;94.48
43420;BME280;29017;51.514;-0.178;2023-12-20T03:32:27;101649.41;;;8.21;94.27
43420;BME280;29017;51.514;-0.178;2023-12-20T03:34:54;101642.38;;;8.22;93.76
43420;BME280;29017;51.514;-0.178;2023-12-20T03:37:21;101646.31;;;8.16;93.89
43420;BME280;29017;51.514;-0.178;2023-12-20T03:39:49;101654.28;;;8.14;93.82
43420;BME280;29017;51.514;-0.178;2023-12-20T03:42:16;101649.75;;;8.16;93.59
43420;BME280;29017;51.514;-0.178;2023-12-20T03:44:43;101653.31;;;8.15;93.86
43420;BME280;29017;51.514;-0.178;2023-12-20T03:47:10;101657.50;;;8.18;93.92
43420;BME280;29017;51.514;-0.178;2023-12-20T03:49:37;101669.78;;;8.18;93.49
43420;BME280;29017;51.514;-0.178;2023-12-20T03:52:05;101667.16;;;8.18;93.62
43420;BME280;29017;51.514;-0.178;2023-12-20T03:54:34;101662.72;;;8.18;93.69
43420;BME280;29017;51.514;-0.178;2023-12-20T03:57:01;101667.03;;;8.19;93.50
43420;BME280;29017;51.514;-0.178;2023-12-20T03:59:28;101673.84;;;8.22;93.60
43420;BME280;29017;51.514;-0.178;2023-12-20T04:01:56;101669.06;;;8.15;93.59
43420;BME280;29017;51.514;-0.178;2023-12-20T04:04:23;101669.78;;;8.18;93.54
43420;BME280;29017;51.514;-0.178;2023-12-20T04:06:50;101668.59;;;8.22;93.46
43420;BME280;29017;51.514;-0.178;2023-12-20T04:09:18;101665.84;;;8.23;93.51
43420;BME280;29017;51.514;-0.178;2023-12-20T04:11:45;101653.47;;;8.25;93.43
43420;BME280;29017;51.514;-0.178;2023-12-20T04:14:12;101647.91;;;8.30;93.68
43420;BME280;29017;51.514;-0.178;2023-12-20T04:16:42;101652.09;;;8.32;93.41
43420;BME280;29017;51.514;-0.178;2023-12-20T04:19:13;101644.22;;;8.32;92.94
43420;BME280;29017;51.514;-0.178;2023-12-20T04:21:41;101649.47;;;8.32;93.09
43420;BME280;29017;51.514;-0.178;2023-12-20T04:24:08;101644.31;;;8.31;92.36
43420;BME280;29017;51.514;-0.178;2023-12-20T04:26:35;101640.25;;;8.27;92.65
43420;BME280;29017;51.514;-0.178;2023-12-20T04:29:03;101636.78;;;8.26;93.36
43420;BME280;29017;51.514;-0.178;2023-12-20T04:31:30;101645.34;;;8.28;93.10
43420;BME280;29017;51.514;-0.178;2023-12-20T04:33:57;101644.66;;;8.26;92.92
43420;BME280;29017;51.514;-0.178;2023-12-20T04:36:24;101653.22;;;8.28;93.37
43420;BME280;29017;51.514;-0.178;2023-12-20T04:38:53;101647.03;;;8.29;93.39
43420;BME280;29017;51.514;-0.178;2023-12-20T04:41:20;101646.94;;;8.31;93.72
43420;BME280;29017;51.514;-0.178;2023-12-20T04:43:47;101652.91;;;8.33;93.89
43420;BME280;29017;51.514;-0.178;2023-12-20T04:46:15;101649.56;;;8.31;93.17
43420;BME280;29017;51.514;-0.178;2023-12-20T04:48:42;101647.03;;;8.29;93.28
43420;BME280;29017;51.514;-0.178;2023-12-20T04:51:09;101633.22;;;8.27;93.47
43420;BME280;29017;51.514;-0.178;2023-12-20T04:53:36;101633.31;;;8.26;93.11
43420;BME280;29017;51.514;-0.178;2023-12-20T04:56:05;101640.25;;;8.27;93.04
43420;BME280;29017;51.514;-0.178;2023-12-20T04:58:32;101631.53;;;8.26;93.12
43420;BME280;29017;51.514;-0.178;2023-12-20T05:01:00;101638.81;;;8.23;93.08
43420;BME280;29017;51.514;-0.178;2023-12-20T05:03:27;101636.31;;;8.21;93.22
43420;BME280;29017;51.514;-0.178;2023-12-20T05:05:54;101641.44;;;8.23;93.10
43420;BME280;29017;51.514;-0.178;2023-12-20T05:08:22;101640.72;;;8.21;93.27
43420;BME280;29017;51.514;-0.178;2023-12-20T05:10:49;101640.81;;;8.19;93.16
43420;BME280;29017;51.514;-0.178;2023-12-20T05:13:16;101645.13;;;8.20;93.45
43420;BME280;29017;51.514;-0.178;2023-12-20T05:15:43;101640.72;;;8.21;93.89
43420;BME280;29017;51.514;-0.178;2023-12-20T05:18:11;101651.19;;;8.21;94.18
43420;BME280;29017;51.514;-0.178;2023-12-20T05:20:38;101653.81;;;8.21;93.92
43420;BME280;29017;51.514;-0.178;2023-12-20T05:23:05;101642.59;;;8.18;94.06
43420;BME280;29017;51.514;-0.178;2023-12-20T05:25:33;101629.50;;;8.18;94.48
43420;BME280;29017;51.514;-0.178;2023-12-20T05:28:00;101629.38;;;8.20;94.25
43420;BME280;29017;51.514;-0.178;2023-12-20T05:30:27;101636.41;;;8.20;94.13
43420;BME280;29017;51.514;-0.178;2023-12-20T05:32:54;101624.16;;;8.20;93.99
43420;BME280;29017;51.514;-0.178;2023-12-20T05:35:21;101617.13;;;8.21;93.81
43420;BME280;29017;51.514;-0.178;2023-12-20T05:37:50;101613.31;;;8.25;94.43
43420;BME280;29017;51.514;-0.178;2023-12-20T05:40:17;101619.38;;;8.25;94.66
43420;BME280;29017;51.514;-0.178;2023-12-20T05:42:45;101615.56;;;8.29;94.49
43420;BME280;29017;51.514;-0.178;2023-12-20T05:45:12;101614.53;;;8.32;94.04
43420;BME280;29017;51.514;-0.178;2023-12-20T05:47:40;101600.34;;;8.34;93.48
43420;BME280;29017;51.514;-0.178;2023-12-20T05:50:07;101599.50;;;8.34;93.09
43420;BME280;29017;51.514;-0.178;2023-12-20T05:52:34;101605.38;;;8.37;93.59
43420;BME280;29017;51.514;-0.178;2023-12-20T05:55:01;101601.91;;;8.37;93.18
43420;BME280;29017;51.514;-0.178;2023-12-20T05:57:29;101605.59;;;8.34;92.96
43420;BME280;29017;51.514;-0.178;2023-12-20T05:59:59;101609.03;;;8.35;93.09
43420;BME280;29017;51.514;-0.178;2023-12-20T06:02:26;101609.28;;;8.32;93.04
43420;BME280;29017;51.514;-0.178;2023-12-20T06:04:53;101600.97;;;8.38;93.76
43420;BME280;29017;51.514;-0.178;2023-12-20T06:07:21;101608.81;;;8.38;93.07
43420;BME280;29017;51.514;-0.178;2023-12-20T06:09:52;101611.19;;;8.41;92.82
43420;BME280;29017;51.514;-0.178;2023-12-20T06:12:25;101624.56;;;8.38;92.71
43420;BME280;29017;51.514;-0.178;2023-12-20T06:14:54;101621.09;;;8.37;92.96
43420;BME280;29017;51.514;-0.178;2023-12-20T06:17:21;101617.38;;;8.40;93.82
43420;BME280;29017;51.514;-0.178;2023-12-20T06:19:48;101624.31;;;8.41;93.66
43420;BME280;29017;51.514;-0.178;2023-12-20T06:22:16;101620.97;;;8.39;93.28
43420;BME280;29017;51.514;-0.178;2023-12-20T06:24:43;101623.59;;;8.39;93.37
43420;BME280;29017;51.514;-0.178;2023-12-20T06:27:10;101618.34;;;8.39;93.95
43420;BME280;29017;51.514;-0.178;2023-12-20T06:29:38;101614.75;;;8.40;94.14
43420;BME280;29017;51.514;-0.178;2023-12-20T06:32:05;101613.81;;;8.41;93.58
43420;BME280;29017;51.514;-0.178;2023-12-20T06:34:32;101610.25;;;8.42;93.40
43420;BME280;29017;51.514;-0.178;2023-12-20T06:36:59;101607.75;;;8.40;93.48
43420;BME280;29017;51.514;-0.178;2023-12-20T06:39:27;101606.91;;;8.40;93.54
43420;BME280;29017;51.514;-0.178;2023-12-20T06:41:55;101600.47;;;8.44;94.00
43420;BME280;29017;51.514;-0.178;2023-12-20T06:44:22;101606.53;;;8.44;93.51
43420;BME280;29017;51.514;-0.178;2023-12-20T06:46:49;101598.81;;;8.43;93.50
43420;BME280;29017;51.514;-0.178;2023-12-20T06:49:17;101612.63;;;8.45;93.06
43420;BME280;29017;51.514;-0.178;2023-12-20T06:51:45;101610.94;;;8.44;93.13
43420;BME280;29017;51.514;-0.178;2023-12-20T06:54:12;101605.69;;;8.44;93.74
43420;BME280;29017;51.514;-0.178;2023-12-20T06:56:40;101600.34;;;8.45;93.38
43420;BME280;29017;51.514;-0.178;2023-12-20T06:59:08;101589.13;;;8.43;93.66
43420;BME280;29017;51.514;-0.178;2023-12-20T07:01:35;101589.97;;;8.44;94.05
43420;BME280;29017;51.514;-0.178;2023-12-20T07:04:02;101595.94;;;8.46;94.36
43420;BME280;29017;51.514;-0.178;2023-12-20T07:06:28;101595.56;;;8.50;94.11
43420;BME280;29017;51.514;-0.178;2023-12-20T07:08:55;101602.13;;;8.56;93.98
43420;BME280;29017;51.514;-0.178;2023-12-20T07:11:22;101595.78;;;8.58;94.08
43420;BME280;29017;51.514;-0.178;2023-12-20T07:13:50;101601.66;;;8.62;94.01
43420;BME280;29017;51.514;-0.178;2023-12-20T07:16:20;101597.00;;;8.66;94.35
43420;BME280;29017;51.514;-0.178;2023-12-20T07:18:47;101591.75;;;8.66;93.80
43420;BME280;29017;51.514;-0.178;2023-12-20T07:21:14;101583.50;;;8.70;93.73
43420;BME280;29017;51.514;-0.178;2023-12-20T07:23:42;101583.41;;;8.72;93.50
43420;BME280;29017;51.514;-0.178;2023-12-20T07:26:09;101575.16;;;8.76;93.95
43420;BME280;29017;51.514;-0.178;2023-12-20T07:28:36;101573.94;;;8.80;94.15
43420;BME280;29017;51.514;-0.178;2023-12-20T07:31:03;101576.47;;;8.82;93.77
43420;BME280;29017;51.514;-0.178;2023-12-20T07:33:30;101570.38;;;8.81;93.67
43420;BME280;29017;51.514;-0.178;2023-12-20T07:36:05;101571.09;;;8.83;93.91
43420;BME280;29017;51.514;-0.178;2023-12-20T07:38:32;101573.72;;;8.83;93.45
43420;BME280;29017;51.514;-0.178;2023-12-20T07:40:59;101567.50;;;8.84;93.47
43420;BME280;29017;51.514;-0.178;2023-12-20T07:43:25;101572.50;;;8.87;93.42
43420;BME280;29017;51.514;-0.178;2023-12-20T07:45:53;101572.63;;;8.86;93.43
43420;BME280;29017;51.514;-0.178;2023-12-20T07:48:27;101588.84;;;8.91;93.55
43420;BME280;29017;51.514;-0.178;2023-12-20T07:50:54;101592.28;;;8.91;93.50
43420;BME280;29017;51.514;-0.178;2023-12-20T07:53:21;101593.81;;;8.94;94.09
43420;BME280;29017;51.514;-0.178;2023-12-20T07:55:48;101597.16;;;8.96;93.84
43420;BME280;29017;51.514;-0.178;2023-12-20T07:58:14;101597.63;;;9.01;93.53
43420;BME280;29017;51.514;-0.178;2023-12-20T08:00:41;101591.56;;;9.00;94.06
43420;BME280;29017;51.514;-0.178;2023-12-20T08:03:08;101592.28;;;9.02;94.26
43420;BME280;29017;51.514;-0.178;2023-12-20T08:05:35;101584.13;;;9.06;94.13
43420;BME280;29017;51.514;-0.178;2023-12-20T08:08:02;101591.06;;;9.07;94.15
43420;BME280;29017;51.514;-0.178;2023-12-20T08:10:29;101597.72;;;9.11;94.05
43420;BME280;29017;51.514;-0.178;2023-12-20T08:12:56;101599.41;;;9.12;94.08
43420;BME280;29017;51.514;-0.178;2023-12-20T08:15:23;101600.13;;;9.14;94.59
43420;BME280;29017;51.514;-0.178;2023-12-20T08:17:50;101604.38;;;9.15;94.76
43420;BME280;29017;51.514;-0.178;2023-12-20T08:20:17;101599.03;;;9.16;94.18
43420;BME280;29017;51.514;-0.178;2023-12-20T08:22:55;101601.53;;;9.18;94.51
43420;BME280;29017;51.514;-0.178;2023-12-20T08:25:22;101597.81;;;9.20;94.41
43420;BME280;29017;51.514;-0.178;2023-12-20T08:27:49;101590.66;;;9.22;94.33
43420;BME280;29017;51.514;-0.178;2023-12-20T08:30:16;101595.78;;;9.24;94.68
43420;BME280;29017;51.514;-0.178;2023-12-20T08:32:48;101587.91;;;9.24;94.86
43420;BME280;29017;51.514;-0.178;2023-12-20T08:35:15;101589.31;;;9.28;95.07
43420;BME280;29017;51.514;-0.178;2023-12-20T08:37:42;101602.19;;;9.31;95.08
43420;BME280;29017;51.514;-0.178;2023-12-20T08:40:10;101608.84;;;9.35;95.08
43420;BME280;29017;51.514;-0.178;2023-12-20T08:42:37;101611.13;;;9.39;95.33
43420;BME280;29017;51.514;-0.178;2023-12-20T08:45:04;101615.38;;;9.40;95.24
43420;BME280;29017;51.514;-0.178;2023-12-20T08:47:31;101620.41;;;9.43;95.34
43420;BME280;29017;51.514;-0.178;2023-12-20T08:50:02;101623.50;;;9.49;94.61
43420;BME280;29017;51.514;-0.178;2023-12-20T08:52:29;101623.13;;;9.53;94.62
43420;BME280;29017;51.514;-0.178;2023-12-20T08:54:56;101613.91;;;9.59;94.67
43420;BME280;29017;51.514;-0.178;2023-12-20T08:57:23;101617.09;;;9.62;94.45
43420;BME280;29017;51.514;-0.178;2023-12-20T08:59:54;101617.53;;;9.67;94.61
43420;BME280;29017;51.514;-0.178;2023-12-20T09:02:25;101617.88;;;9.74;94.30
43420;BME280;29017;51.514;-0.178;2023-12-20T09:04:51;101592.50;;;9.84;94.45
43420;BME280;29017;51.514;-0.178;2023-12-20T09:07:25;101587.28;;;9.94;94.28
43420;BME280;29017;51.514;-0.178;2023-12-20T09:09:52;101591.88;;;10.01;93.55
43420;BME280;29017;51.514;-0.178;2023-12-20T09:12:20;101594.28;;;10.04;93.27
43420;BME280;29017;51.514;-0.178;2023-12-20T09:14:47;101587.06;;;10.06;92.92
43420;BME280;29017;51.514;-0.178;2023-12-20T09:17:15;101589.56;;;10.08;93.25
43420;BME280;29017;51.514;-0.178;2023-12-20T09:19:43;101597.19;;;10.11;92.92
43420;BME280;29017;51.514;-0.178;2023-12-20T09:22:13;101598.75;;;10.13;92.73
43420;BME280;29017;51.514;-0.178;2023-12-20T09:24:40;101612.59;;;10.15;92.64
43420;BME280;29017;51.514;-0.178;2023-12-20T09:27:07;101600.88;;;10.19;93.21
43420;BME280;29017;51.514;-0.178;2023-12-20T09:29:34;101583.03;;;10.23;92.68
43420;BME280;29017;51.514;-0.178;2023-12-20T09:32:01;101584.59;;;10.25;92.37
43420;BME280;29017;51.514;-0.178;2023-12-20T09:34:28;101599.81;;;10.32;92.26
43420;BME280;29017;51.514;-0.178;2023-12-20T09:36:56;101597.78;;;10.35;91.57
43420;BME280;29017;51.514;-0.178;2023-12-20T09:39:23;101599.03;;;10.41;91.79
43420;BME280;29017;51.514;-0.178;2023-12-20T09:42:00;101604.34;;;10.50;91.80
43420;BME280;29017;51.514;-0.178;2023-12-20T09:44:28;101595.63;;;10.59;91.38
43420;BME280;29017;51.514;-0.178;2023-12-20T09:46:55;101606.59;;;10.64;91.18
43420;BME280;29017;51.514;-0.178;2023-12-20T09:49:22;101608.69;;;10.70;90.61
43420;BME280;29017;51.514;-0.178;2023-12-20T09:51:53;101612.44;;;10.78;90.95
43420;BME280;29017;51.514;-0.178;2023-12-20T09:54:20;101613.16;;;10.80;89.82
43420;BME280;29017;51.514;-0.178;2023-12-20T09:56:47;101607.88;;;10.80;89.81
43420;BME280;29017;51.514;-0.178;2023-12-20T09:59:14;101591.81;;;10.83;90.12
43420;BME280;29017;51.514;-0.178;2023-12-20T10:01:41;101581.88;;;10.86;90.12
43420;BME280;29017;51.514;-0.178;2023-12-20T10:04:09;101591.28;;;10.89;90.16
43420;BME280;29017;51.514;-0.178;2023-12-20T10:06:54;101575.91;;;10.94;90.22
43420;BME280;29017;51.514;-0.178;2023-12-20T10:09:23;101584.22;;;10.99;89.62
43420;BME280;29017;51.514;-0.178;2023-12-20T10:11:50;101589.22;;;11.02;89.45
43420;BME280;29017;51.514;-0.178;2023-12-20T10:14:20;101598.09;;;11.01;89.75
43420;BME280;29017;51.514;-0.178;2023-12-20T10:16:49;101581.19;;;11.03;90.08
43420;BME280;29017;51.514;-0.178;2023-12-20T10:19:17;101581.88;;;11.05;89.97
43420;BME280;29017;51.514;-0.178;2023-12-20T10:21:45;101594.94;;;11.07;89.50
43420;BME280;29017;51.514;-0.178;2023-12-20T10:24:21;101591.72;;;11.13;88.83
43420;BME280;29017;51.514;-0.178;2023-12-20T10:27:08;101605.72;;;11.13;89.03
43420;BME280;29017;51.514;-0.178;2023-12-20T10:29:36;101610.72;;;11.17;89.08
43420;BME280;29017;51.514;-0.178;2023-12-20T10:32:38;101591.88;;;11.21;89.51
43420;BME280;29017;51.514;-0.178;2023-12-20T10:34:58;101597.41;;;11.28;89.25
43420;BME280;29017;51.514;-0.178;2023-12-20T10:37:26;101579.53;;;11.31;88.66
43420;BME280;29017;51.514;-0.178;2023-12-20T10:40:00;101581.22;;;11.32;88.29
43420;BME280;29017;51.514;-0.178;2023-12-20T10:42:29;101589.53;;;11.37;88.72
43420;BME280;29017;51.514;-0.178;2023-12-20T10:44:59;101583.44;;;11.37;88.02
43420;BME280;29017;51.514;-0.178;2023-12-20T10:47:25;101578.28;;;11.35;88.73
43420;BME280;29017;51.514;-0.178;2023-12-20T10:50:02;101563.31;;;11.36;88.44
43420;BME280;29017;51.514;-0.178;2023-12-20T10:52:31;101570.94;;;11.39;88.19
43420;BME280;29017;51.514;-0.178;2023-12-20T10:54:59;101583.25;;;11.38;88.26
43420;BME280;29017;51.514;-0.178;2023-12-20T10:57:26;101569.97;;;11.40;88.11
43420;BME280;29017;51.514;-0.178;2023-12-20T10:59:57;101553.84;;;11.43;88.35
43420;BME280;29017;51.514;-0.178;2023-12-20T11:02:27;101553.47;;;11.47;88.55
43420;BME280;29017;51.514;-0.178;2023-12-20T11:05:06;101545.00;;;11.44;88.55
43420;BME280;29017;51.514;-0.178;2023-12-20T11:07:44;101530.72;;;11.46;88.94
43420;BME280;29017;51.514;-0.178;2023-12-20T11:10:21;101527.78;;;11.49;88.77
43420;BME280;29017;51.514;-0.178;2023-12-20T11:13:34;101518.91;;;11.50;88.60
43420;BME280;29017;51.514;-0.178;2023-12-20T11:15:41;101514.34;;;11.52;88.14
43420;BME280;29017;51.514;-0.178;2023-12-20T11:18:08;101508.66;;;11.57;88.95
43420;BME280;29017;51.514;-0.178;2023-12-20T11:20:38;101509.75;;;11.54;88.39
43420;BME280;29017;51.514;-0.178;2023-12-20T11:23:06;101500.88;;;11.55;88.25
43420;BME280;29017;51.514;-0.178;2023-12-20T11:25:51;101493.66;;;11.57;88.14
43420;BME280;29017;51.514;-0.178;2023-12-20T11:28:22;101502.09;;;11.61;88.30
43420;BME280;29017;51.514;-0.178;2023-12-20T11:33:23;101487.13;;;11.62;88.07
43420;BME280;29017;51.514;-0.178;2023-12-20T11:35:57;101474.47;;;11.65;88.11
43420;BME280;29017;51.514;-0.178;2023-12-20T11:38:24;101481.13;;;11.69;88.06
43420;BME280;29017;51.514;-0.178;2023-12-20T11:40:53;101472.81;;;11.74;88.10
43420;BME280;29017;51.514;-0.178;2023-12-20T11:43:36;101472.69;;;11.75;88.06
43420;BME280;29017;51.514;-0.178;2023-12-20T11:46:05;101473.06;;;11.80;87.88
43420;BME280;29017;51.514;-0.178;2023-12-20T11:48:37;101465.44;;;11.87;87.53
43420;BME280;29017;51.514;-0.178;2023-12-20T11:51:13;101462.78;;;11.87;87.15
43420;BME280;29017;51.514;-0.178;2023-12-20T11:53:40;101457.50;;;11.87;87.19
43420;BME280;29017;51.514;-0.178;2023-12-20T11:56:09;101448.31;;;11.91;87.18
43420;BME280;29017;51.514;-0.178;2023-12-20T11:58:36;101443.75;;;11.93;86.84
43420;BME280;29017;51.514;-0.178;2023-12-20T12:01:04;101433.59;;;11.98;87.17
43420;BME280;29017;51.514;-0.178;2023-12-20T12:03:35;101429.69;;;12.02;86.98
43420;BME280;29017;51.514;-0.178;2023-12-20T12:06:02;101433.97;;;12.03;86.18
43420;BME280;29017;51.514;-0.178;2023-12-20T12:08:31;101419.50;;;12.07;86.87
43420;BME280;29017;51.514;-0.178;2023-12-20T12:10:58;101409.94;;;12.06;86.91
43420;BME280;29017;51.514;-0.178;2023-12-20T12:13:25;101407.81;;;12.10;87.13
43420;BME280;29017;51.514;-0.178;2023-12-20T12:15:55;101401.56;;;12.11;86.12
43420;BME280;29017;51.514;-0.178;2023-12-20T12:18:22;101403.69;;;12.07;85.66
43420;BME280;29017;51.514;-0.178;2023-12-20T12:20:49;101405.81;;;12.04;86.06
43420;BME280;29017;51.514;-0.178;2023-12-20T12:23:22;101405.50;;;12.07;86.04
43420;BME280;29017;51.514;-0.178;2023-12-20T12:25:49;101408.44;;;12.04;86.33
43420;BME280;29017;51.514;-0.178;2023-12-20T12:28:16;101416.19;;;12.05;87.10
43420;BME280;29017;51.514;-0.178;2023-12-20T12:30:55;101411.28;;;12.10;86.75
43420;BME280;29017;51.514;-0.178;2023-12-20T12:33:22;101401.97;;;12.16;86.71
43420;BME280;29017;51.514;-0.178;2023-12-20T12:35:49;101397.44;;;12.26;87.04
43420;BME280;29017;51.514;-0.178;2023-12-20T12:38:16;101401.31;;;12.31;85.91
43420;BME280;29017;51.514;-0.178;2023-12-20T12:40:43;101391.44;;;12.33;85.55
43420;BME280;29017;51.514;-0.178;2023-12-20T12:43:10;101397.94;;;12.39;85.66
43420;BME280;29017;51.514;-0.178;2023-12-20T12:45:37;101386.38;;;12.40;84.93
43420;BME280;29017;51.514;-0.178;2023-12-20T12:48:04;101388.34;;;12.38;84.72
43420;BME280;29017;51.514;-0.178;2023-12-20T12:50:31;101382.59;;;12.42;84.66
43420;BME280;29017;51.514;-0.178;2023-12-20T12:52:58;101364.28;;;12.41;84.64
43420;BME280;29017;51.514;-0.178;2023-12-20T12:55:25;101351.91;;;12.41;84.92